Time;durP1;ratioP1;P1;durP2;ratioP2;P2;SDS_P1;SDS_P2;PMS_P1;PMS_P2;Temp;Humidity;BMP_temperature;BMP_pressure;BME280_temperature;BME280_humidity;BME280_pressure;Samples;Min_cycle;Max_cycle;Signal;HPM_P1;HPM_P2
2022/11/20 00:01:30;;;;;;;16.52;11.10;;;0.80;99.90;;;;;;5108898;28;20225;-85
2022/11/20 00:03:58;;;;;;;18.45;11.18;;;0.70;99.90;;;;;;5109397;28;20209;-85
2022/11/20 00:06:29;;;;;;;13.35;11.13;;;0.70;99.90;;;;;;5152306;22;20230;-87
2022/11/20 00:08:57;;;;;;;21.58;13.13;;;0.50;99.90;;;;;;5173975;27;20214;-86
2022/11/20 00:11:28;;;;;;;17.77;11.85;;;0.60;99.90;;;;;;5164666;27;20200;-86
2022/11/20 00:13:58;;;;;;;18.48;10.82;;;0.40;99.90;;;;;;5167824;27;20220;-86
2022/11/20 00:16:26;;;;;;;17.73;10.90;;;0.40;99.90;;;;;;5166726;27;20223;-87
2022/11/20 00:18:53;;;;;;;16.95;11.50;;;0.50;99.90;;;;;;5182091;27;20325;-87
2022/11/20 00:21:22;;;;;;;17.67;11.85;;;0.50;99.90;;;;;;5182048;27;20561;-86
2022/11/20 00:23:52;;;;;;;14.32;12.25;;;0.50;99.90;;;;;;5184982;27;20274;-85
2022/11/20 00:26:20;;;;;;;18.17;11.65;;;0.50;99.90;;;;;;5183903;27;20306;-86
2022/11/20 00:28:50;;;;;;;15.45;10.75;;;;;;;;;;5189892;27;20222;-86
2022/11/20 00:31:18;;;;;;;15.10;10.98;;;0.20;99.90;;;;;;5199790;27;20250;-86
2022/11/20 00:33:45;;;;;;;18.08;12.55;;;0.40;99.90;;;;;;5195981;27;20283;-86
2022/11/20 00:36:14;;;;;;;16.17;11.48;;;0.50;99.90;;;;;;5190046;27;20240;-87
2022/11/20 00:38:41;;;;;;;18.02;12.13;;;0.50;99.90;;;;;;5187606;27;20299;-85
2022/11/20 00:41:11;;;;;;;18.92;10.85;;;0.20;99.90;;;;;;5183735;27;20285;-86
2022/11/20 00:43:38;;;;;;;20.02;12.70;;;0.30;99.90;;;;;;5181690;27;20194;-86
2022/11/20 00:46:08;;;;;;;18.50;11.00;;;0.60;99.90;;;;;;5180252;27;20652;-86
2022/11/20 00:48:35;;;;;;;19.30;12.23;;;0.30;99.90;;;;;;5179643;27;20198;-86
2022/11/20 00:51:02;;;;;;;17.85;11.50;;;0.40;99.90;;;;;;5180024;27;20199;-86
2022/11/20 00:53:28;;;;;;;17.85;12.98;;;0.50;99.90;;;;;;5179652;27;20301;-86
2022/11/20 00:55:56;;;;;;;14.38;11.13;;;0.50;99.90;;;;;;5180393;27;20215;-86
2022/11/20 00:58:26;;;;;;;14.52;10.50;;;0.20;99.90;;;;;;5188537;27;20233;-86
2022/11/20 01:00:52;;;;;;;20.02;11.40;;;0.50;99.90;;;;;;5185232;27;20206;-86
2022/11/20 01:03:19;;;;;;;18.17;12.98;;;0.70;99.90;;;;;;5183147;27;20560;-86
2022/11/20 01:05:46;;;;;;;20.58;13.15;;;0.20;99.90;;;;;;5180031;27;20580;-86
2022/11/20 01:08:13;;;;;;;17.13;11.23;;;0.70;99.90;;;;;;5181375;27;20560;-86
2022/11/20 01:10:40;;;;;;;18.33;9.30;;;0.60;99.90;;;;;;5180689;27;20231;-87
2022/11/20 01:15:52;;;;;;;18.98;10.60;;;0.50;99.90;;;;;;5178820;27;20208;-86
2022/11/20 01:18:19;;;;;;;19.23;12.13;;;0.60;99.90;;;;;;5181431;27;20209;-87
2022/11/20 01:20:46;;;;;;;23.70;14.02;;;0.50;99.90;;;;;;5181659;27;20564;-87
2022/11/20 01:23:13;;;;;;;17.52;12.00;;;0.30;99.90;;;;;;5181023;27;20685;-86
2022/11/20 01:25:40;;;;;;;22.77;12.75;;;0.80;99.90;;;;;;5180793;27;20261;-86
2022/11/20 01:28:06;;;;;;;19.17;12.18;;;0.20;99.90;;;;;;5181076;27;20334;-86
2022/11/20 01:30:33;;;;;;;17.13;11.98;;;0.50;99.90;;;;;;5180890;27;20290;-86
2022/11/20 01:33:01;;;;;;;18.90;10.65;;;0.20;99.90;;;;;;5181311;27;20625;-86
2022/11/20 01:35:28;;;;;;;14.93;11.13;;;0.50;99.90;;;;;;5180203;27;20313;-86
2022/11/20 01:37:55;;;;;;;18.75;10.65;;;1.10;99.90;;;;;;5180237;27;20576;-86
2022/11/20 01:40:22;;;;;;;24.00;12.15;;;0.40;99.90;;;;;;5180076;27;20213;-87
2022/11/20 01:43:21;;;;;;;22.73;12.77;;;0.50;99.90;;;;;;5180416;27;20621;-87
2022/11/20 01:46:06;;;;;;;16.77;11.07;;;0.20;99.90;;;;;;5179805;27;20207;-87
2022/11/20 01:48:37;;;;;;;20.30;11.80;;;0.60;99.90;;;;;;5178428;27;20199;-87
2022/11/20 01:51:06;;;;;;;20.40;11.73;;;0.70;99.90;;;;;;5186987;27;20179;-87
2022/11/20 01:53:36;;;;;;;22.20;12.20;;;0.50;99.90;;;;;;5191014;27;22080;-86
2022/11/20 01:56:08;;;;;;;15.23;11.38;;;0.40;99.90;;;;;;5182889;27;20258;-86
2022/11/20 01:58:39;;;;;;;24.10;13.70;;;0.70;99.90;;;;;;5181447;27;20694;-87
2022/11/20 02:01:07;;;;;;;22.15;12.90;;;0.40;99.90;;;;;;5181795;27;20244;-86
2022/11/20 02:03:34;;;;;;;14.25;12.15;;;0.40;99.90;;;;;;5182442;27;20202;-87
2022/11/20 02:06:08;;;;;;;17.25;11.75;;;0.70;99.90;;;;;;5184066;27;20266;-87
2022/11/20 02:08:37;;;;;;;18.88;11.95;;;0.30;99.90;;;;;;5189406;27;20187;-87
2022/11/20 02:11:04;;;;;;;21.95;13.52;;;0.30;99.90;;;;;;5199253;27;20223;-86
2022/11/20 02:13:45;;;;;;;21.02;13.88;;;0.30;99.90;;;;;;5204394;27;20183;-87
2022/11/20 02:16:17;;;;;;;25.15;14.90;;;0.40;99.90;;;;;;5195902;27;20253;-87
2022/11/20 02:18:45;;;;;;;24.45;14.23;;;0.50;99.90;;;;;;5183989;27;20222;-87
2022/11/20 02:21:22;;;;;;;21.23;12.07;;;0.50;99.90;;;;;;5183116;27;20760;-86
2022/11/20 02:24:13;;;;;;;18.48;11.73;;;0.40;99.90;;;;;;5195264;27;20206;-86
2022/11/20 02:26:46;;;;;;;18.42;10.60;;;0.40;99.90;;;;;;5199843;27;20279;-86
2022/11/20 02:29:16;;;;;;;20.27;11.10;;;0.40;99.90;;;;;;5203863;27;20211;-86
2022/11/20 02:31:44;;;;;;;18.90;12.23;;;0.50;99.90;;;;;;5196903;27;20278;-86
2022/11/20 02:34:11;;;;;;;17.27;11.48;;;-0.70;99.90;;;;;;5195506;27;20291;-86
2022/11/20 02:36:41;;;;;;;19.92;12.68;;;0.10;99.90;;;;;;5191887;27;20286;-86
2022/11/20 02:39:08;;;;;;;18.15;11.95;;;0.20;99.90;;;;;;5198546;27;20286;-86
2022/11/20 02:41:38;;;;;;;16.35;12.07;;;0.20;99.90;;;;;;5201088;27;20229;-86
2022/11/20 02:44:06;;;;;;;18.98;12.23;;;0.10;99.90;;;;;;5197327;27;20223;-87
2022/11/20 02:46:33;;;;;;;19.17;12.07;;;0.30;99.90;;;;;;5185342;27;20310;-87
2022/11/20 02:49:02;;;;;;;21.60;12.63;;;-0.50;99.90;;;;;;5181974;27;20578;-86
2022/11/20 02:51:29;;;;;;;19.00;11.63;;;0.10;99.90;;;;;;5181963;27;20369;-87
2022/11/20 02:53:56;;;;;;;18.95;12.43;;;0.00;99.90;;;;;;5181661;27;20305;-86
2022/11/20 02:56:22;;;;;;;20.38;11.90;;;0.60;99.90;;;;;;5184714;27;20317;-86
2022/11/20 02:58:51;;;;;;;17.15;11.10;;;0.10;99.90;;;;;;5180889;27;20634;-86
2022/11/20 03:01:17;;;;;;;16.48;11.68;;;0.00;99.90;;;;;;5186094;27;20213;-86
2022/11/20 03:03:44;;;;;;;16.63;11.63;;;0.00;99.90;;;;;;5201405;27;20657;-86
2022/11/20 03:06:11;;;;;;;17.80;11.48;;;0.10;99.90;;;;;;5182299;27;20236;-86
2022/11/20 03:08:38;;;;;;;20.30;12.50;;;0.40;99.90;;;;;;5180738;27;20225;-86
2022/11/20 03:11:07;;;;;;;22.13;12.10;;;0.20;99.90;;;;;;5181103;27;20201;-86
2022/11/20 03:13:34;;;;;;;16.90;12.60;;;0.20;99.90;;;;;;5185686;27;20201;-86
2022/11/20 03:16:08;;;;;;;23.70;11.60;;;0.30;99.90;;;;;;5193823;27;20263;-86
2022/11/20 03:18:35;;;;;;;17.60;11.93;;;0.00;99.90;;;;;;5186053;27;20180;-86
2022/11/20 03:21:02;;;;;;;17.63;11.43;;;0.10;99.90;;;;;;5183308;27;20206;-86
2022/11/20 03:23:31;;;;;;;17.42;11.05;;;0.20;99.90;;;;;;5183329;27;20285;-86
2022/11/20 03:26:08;;;;;;;19.92;12.93;;;0.30;99.90;;;;;;5182284;27;20204;-86
2022/11/20 03:28:35;;;;;;;18.48;12.32;;;0.60;99.90;;;;;;5180388;27;20212;-86
2022/11/20 03:31:11;;;;;;;19.17;10.50;;;-0.10;99.90;;;;;;5180490;27;20203;-86
2022/11/20 03:33:39;;;;;;;18.02;11.65;;;0.40;99.90;;;;;;5182392;27;20286;-86
2022/11/20 03:36:08;;;;;;;17.90;10.77;;;0.10;99.90;;;;;;5196249;27;20238;-86
2022/11/20 03:38:35;;;;;;;16.30;10.55;;;0.20;99.90;;;;;;5201176;27;20203;-86
2022/11/20 03:41:04;;;;;;;22.08;11.63;;;0.20;99.90;;;;;;5189098;27;20547;-86
2022/11/20 03:43:31;;;;;;;18.52;11.75;;;0.20;99.90;;;;;;5179443;27;20195;-87
2022/11/20 03:45:58;;;;;;;21.65;12.25;;;0.00;99.90;;;;;;5179623;27;20286;-87
2022/11/20 03:48:26;;;;;;;16.25;10.60;;;0.20;99.90;;;;;;5195281;27;20205;-86
2022/11/20 03:50:53;;;;;;;22.67;13.60;;;0.30;99.90;;;;;;5196440;27;20319;-86
2022/11/20 03:53:21;;;;;;;21.70;11.82;;;0.10;99.90;;;;;;5197344;27;20195;-86
2022/11/20 03:55:52;;;;;;;16.80;11.60;;;2.50;99.90;;;;;;5186054;27;20227;-86
2022/11/20 03:58:19;;;;;;;17.35;12.52;;;0.00;99.90;;;;;;5179836;27;20628;-86
2022/11/20 04:00:45;;;;;;;19.42;12.23;;;0.20;99.90;;;;;;5178818;27;20195;-86
2022/11/20 04:03:13;;;;;;;21.63;12.30;;;;;;;;;;5178709;27;20665;-86
2022/11/20 04:05:41;;;;;;;20.85;12.13;;;0.30;99.90;;;;;;5178711;27;20195;-86
2022/11/20 04:08:08;;;;;;;18.45;12.20;;;0.50;99.90;;;;;;5179013;27;20727;-87
2022/11/20 04:10:34;;;;;;;17.15;12.20;;;0.20;99.90;;;;;;5187880;27;20193;-87
2022/11/20 04:13:01;;;;;;;22.67;13.23;;;0.20;99.90;;;;;;5179111;27;20209;-87
2022/11/20 04:15:28;;;;;;;21.90;12.27;;;-0.10;99.90;;;;;;5178685;27;20227;-87
2022/11/20 04:17:55;;;;;;;22.40;12.30;;;0.10;99.90;;;;;;5178464;27;20302;-87
2022/11/20 04:20:22;;;;;;;15.65;11.30;;;0.10;99.90;;;;;;5179010;27;20195;-87
2022/11/20 04:22:53;;;;;;;22.90;12.55;;;0.10;99.90;;;;;;5178744;27;20199;-86
2022/11/20 04:25:20;;;;;;;18.83;11.70;;;-0.10;99.90;;;;;;5178735;27;20185;-86
2022/11/20 04:27:49;;;;;;;17.00;11.75;;;0.00;99.90;;;;;;5178078;27;20231;-87
2022/11/20 04:30:16;;;;;;;20.75;11.88;;;0.10;99.90;;;;;;5178083;27;20206;-86
2022/11/20 04:32:43;;;;;;;16.80;12.15;;;0.20;99.90;;;;;;5178451;27;20284;-87
2022/11/20 04:35:12;;;;;;;17.08;10.93;;;0.30;99.90;;;;;;5178459;27;20211;-86
2022/11/20 04:37:39;;;;;;;21.92;12.80;;;-0.20;99.90;;;;;;5177714;27;20215;-86
2022/11/20 04:40:08;;;;;;;18.75;13.07;;;0.10;99.90;;;;;;5178771;27;20665;-86
2022/11/20 04:42:35;;;;;;;22.95;13.25;;;0.30;99.90;;;;;;5181566;27;20225;-86
2022/11/20 04:45:02;;;;;;;22.23;12.00;;;0.20;99.90;;;;;;5178589;27;20199;-86
2022/11/20 04:47:29;;;;;;;20.65;12.13;;;0.30;99.90;;;;;;5177607;27;20219;-86
2022/11/20 04:49:55;;;;;;;19.52;13.55;;;0.10;99.90;;;;;;5177912;27;20290;-86
2022/11/20 04:52:22;;;;;;;20.08;12.55;;;;;;;;;;5177765;27;20196;-87
2022/11/20 04:54:52;;;;;;;14.70;11.95;;;0.40;99.90;;;;;;5177779;27;20587;-86
2022/11/20 04:57:20;;;;;;;17.10;12.40;;;0.40;99.90;;;;;;5177665;27;20318;-86
2022/11/20 04:59:47;;;;;;;19.63;10.98;;;0.50;99.90;;;;;;5177540;27;20293;-86
2022/11/20 05:02:14;;;;;;;19.08;12.10;;;0.50;99.90;;;;;;5177909;27;20572;-86
2022/11/20 05:04:41;;;;;;;16.77;10.38;;;0.40;99.90;;;;;;5177667;27;20233;-86
2022/11/20 05:07:08;;;;;;;17.95;13.20;;;0.10;99.90;;;;;;5177203;27;20237;-86
2022/11/20 05:09:35;;;;;;;22.00;14.30;;;0.50;99.90;;;;;;5177420;27;20202;-86
2022/11/20 05:12:01;;;;;;;19.58;12.52;;;0.30;99.90;;;;;;5177634;27;20199;-86
2022/11/20 05:14:30;;;;;;;17.90;11.55;;;-0.10;99.90;;;;;;5181520;27;20233;-86
2022/11/20 05:16:56;;;;;;;17.30;12.82;;;0.10;99.90;;;;;;5200492;27;20207;-87
2022/11/20 05:19:23;;;;;;;19.20;12.20;;;0.50;99.90;;;;;;5185740;27;20286;-87
2022/11/20 05:21:50;;;;;;;17.88;12.10;;;-0.10;99.90;;;;;;5178735;27;20223;-87
2022/11/20 05:24:17;;;;;;;20.75;13.63;;;0.20;99.90;;;;;;5178683;27;20237;-86
2022/11/20 05:26:44;;;;;;;17.50;11.38;;;;;;;;;;5178280;27;20226;-87
2022/11/20 05:29:12;;;;;;;26.30;13.20;;;0.40;99.90;;;;;;5178120;27;20199;-86
2022/11/20 05:31:41;;;;;;;25.48;15.32;;;0.20;99.90;;;;;;5179000;27;20230;-86
2022/11/20 05:34:11;;;;;;;29.13;16.33;;;0.30;99.90;;;;;;5179605;27;20302;-86
2022/11/20 05:36:38;;;;;;;25.63;15.50;;;0.30;99.90;;;;;;5183258;27;20295;-86
2022/11/20 05:39:05;;;;;;;21.40;14.95;;;0.50;99.90;;;;;;5189100;27;20231;-86
2022/11/20 05:41:33;;;;;;;19.70;12.15;;;0.20;99.90;;;;;;5186288;27;20290;-86
2022/11/20 05:44:00;;;;;;;21.92;13.57;;;0.30;99.90;;;;;;5184494;27;20230;-87
2022/11/20 05:46:27;;;;;;;16.65;12.93;;;0.80;99.90;;;;;;5181114;27;20247;-87
2022/11/20 05:48:56;;;;;;;20.02;13.27;;;0.60;99.90;;;;;;5178551;27;20195;-86
2022/11/20 05:51:25;;;;;;;21.60;14.70;;;0.30;99.90;;;;;;5156092;27;20188;-86
2022/11/20 05:53:52;;;;;;;20.27;12.70;;;0.30;99.90;;;;;;5156222;27;20204;-86
2022/11/20 05:56:20;;;;;;;16.52;11.50;;;0.20;99.90;;;;;;5156239;27;20238;-87
2022/11/20 05:58:48;;;;;;;17.90;12.35;;;0.20;99.90;;;;;;5156900;27;20294;-86
2022/11/20 06:01:17;;;;;;;19.25;12.43;;;0.20;99.90;;;;;;5156996;27;20200;-86
2022/11/20 06:03:45;;;;;;;24.10;13.27;;;0.40;99.90;;;;;;5157660;27;20279;-87
2022/11/20 06:08:45;;;;;;;18.13;12.93;;;0.00;99.90;;;;;;5125080;28;20235;-84
2022/11/20 06:11:13;;;;;;;18.48;10.93;;;0.20;99.90;;;;;;5124495;28;20269;-85
2022/11/20 06:13:41;;;;;;;20.92;14.25;;;0.20;99.90;;;;;;5125999;28;20628;-84
2022/11/20 06:16:08;;;;;;;16.45;12.60;;;0.20;99.90;;;;;;5125289;28;20653;-85
2022/11/20 06:18:35;;;;;;;21.00;12.85;;;0.40;99.90;;;;;;5125257;28;20200;-84
2022/11/20 06:21:03;;;;;;;18.70;12.70;;;-0.10;99.90;;;;;;5127565;28;20256;-82
2022/11/20 06:23:31;;;;;;;20.90;12.23;;;0.20;99.90;;;;;;5136152;28;20215;-84
2022/11/20 06:26:01;;;;;;;20.00;12.90;;;0.40;99.90;;;;;;5136389;28;20201;-82
2022/11/20 06:28:28;;;;;;;16.23;12.13;;;0.30;99.90;;;;;;5135194;28;20229;-82
2022/11/20 06:30:55;;;;;;;22.03;14.17;;;;;;;;;;5129203;28;20474;-86
2022/11/20 06:33:22;;;;;;;20.27;13.52;;;0.20;99.90;;;;;;5124402;28;20506;-84
2022/11/20 06:35:49;;;;;;;21.60;14.23;;;0.20;99.90;;;;;;5124680;28;20256;-85
2022/11/20 06:38:16;;;;;;;20.42;11.35;;;0.20;99.90;;;;;;5128201;28;20293;-84
2022/11/20 06:40:43;;;;;;;21.67;12.82;;;-0.20;99.90;;;;;;5128835;28;20618;-85
2022/11/20 06:43:12;;;;;;;17.52;13.02;;;0.50;99.90;;;;;;5126196;28;20228;-84
2022/11/20 06:45:38;;;;;;;20.85;13.07;;;-0.10;99.90;;;;;;5128859;28;20394;-85
2022/11/20 06:48:06;;;;;;;20.60;13.20;;;0.20;99.90;;;;;;5131894;28;20285;-84
2022/11/20 06:50:32;;;;;;;23.15;13.80;;;0.30;99.90;;;;;;5129286;28;20268;-83
2022/11/20 06:53:03;;;;;;;22.05;12.32;;;0.40;99.90;;;;;;5126599;28;20209;-85
2022/11/20 06:55:30;;;;;;;20.40;11.55;;;0.80;99.90;;;;;;5128578;28;20571;-83
2022/11/20 06:57:56;;;;;;;15.85;11.00;;;-0.10;99.90;;;;;;5128494;28;20285;-84
2022/11/20 07:00:25;;;;;;;18.25;11.65;;;0.10;99.90;;;;;;5127842;28;20201;-85
2022/11/20 07:02:52;;;;;;;21.98;12.35;;;0.40;99.90;;;;;;5133980;28;20225;-85
2022/11/20 07:05:19;;;;;;;19.05;12.75;;;0.20;99.90;;;;;;5138602;28;20201;-83
2022/11/20 07:07:46;;;;;;;17.38;11.93;;;-0.10;99.90;;;;;;5132514;28;20714;-85
2022/11/20 07:10:16;;;;;;;25.67;13.40;;;0.30;99.90;;;;;;5127950;28;20207;-84
2022/11/20 07:12:43;;;;;;;18.45;11.20;;;0.10;99.90;;;;;;5127234;28;20288;-84
2022/11/20 07:15:10;;;;;;;21.13;13.32;;;0.10;99.90;;;;;;5131544;28;20781;-85
2022/11/20 07:17:38;;;;;;;22.85;13.00;;;-0.40;99.90;;;;;;5128479;28;20252;-84
2022/11/20 07:20:09;;;;;;;18.85;13.32;;;0.40;99.90;;;;;;5134283;28;20257;-82
2022/11/20 07:22:35;;;;;;;20.13;13.50;;;0.10;99.90;;;;;;5140928;28;20200;-82
2022/11/20 07:25:02;;;;;;;20.23;12.32;;;0.40;99.90;;;;;;5132127;28;20635;-85
2022/11/20 07:27:30;;;;;;;24.45;12.95;;;0.20;99.90;;;;;;5121694;28;20235;-83
2022/11/20 07:29:56;;;;;;;21.58;14.55;;;0.00;99.90;;;;;;5120703;28;20435;-84
2022/11/20 07:32:23;;;;;;;22.77;14.45;;;0.20;99.90;;;;;;5123097;28;20201;-82
2022/11/20 07:34:52;;;;;;;19.50;11.18;;;0.20;99.90;;;;;;5123828;28;20201;-84
2022/11/20 07:37:21;;;;;;;26.10;14.10;;;0.30;99.90;;;;;;5124851;28;20224;-82
2022/11/20 07:39:48;;;;;;;19.55;13.05;;;0.20;99.90;;;;;;5124774;28;20202;-86
2022/11/20 07:42:15;;;;;;;19.10;12.23;;;0.20;99.90;;;;;;5125180;28;20215;-85
2022/11/20 07:44:42;;;;;;;17.10;10.63;;;1.30;99.90;;;;;;5125854;28;20625;-83
2022/11/20 07:47:09;;;;;;;17.13;11.52;;;;;;;;;;5125807;28;20226;-85
2022/11/20 07:49:36;;;;;;;21.23;13.07;;;0.30;99.90;;;;;;5126864;28;20291;-84
2022/11/20 07:52:04;;;;;;;20.00;12.52;;;0.30;99.90;;;;;;5126117;28;20232;-84
2022/11/20 07:54:32;;;;;;;16.60;12.00;;;0.20;99.90;;;;;;5125501;28;20265;-84
2022/11/20 07:56:59;;;;;;;23.98;13.48;;;0.50;99.90;;;;;;5126610;28;20258;-85
2022/11/20 07:59:25;;;;;;;19.35;12.85;;;0.40;99.90;;;;;;5126263;28;20228;-84
2022/11/20 08:01:52;;;;;;;20.95;12.45;;;0.40;99.90;;;;;;5126868;28;20206;-84
2022/11/20 08:04:19;;;;;;;19.20;13.38;;;0.40;99.90;;;;;;5132164;28;20295;-82
2022/11/20 08:06:46;;;;;;;18.25;11.63;;;0.00;99.90;;;;;;5121101;28;20307;-84
2022/11/20 08:09:14;;;;;;;19.90;12.73;;;0.30;99.90;;;;;;5121932;28;20276;-82
2022/11/20 08:14:27;;;;;;;18.13;13.35;;;0.50;99.90;;;;;;5137073;28;20181;-84
2022/11/20 08:16:54;;;;;;;18.85;13.52;;;0.20;99.90;;;;;;5137219;28;20233;-83
2022/11/20 08:19:20;;;;;;;22.42;13.63;;;0.70;99.90;;;;;;5133512;28;20224;-84
2022/11/20 08:21:47;;;;;;;18.60;12.73;;;0.20;99.90;;;;;;5133878;28;20213;-84
2022/11/20 08:24:15;;;;;;;22.15;14.15;;;0.50;99.90;;;;;;5134236;28;20209;-83
2022/11/20 08:26:42;;;;;;;21.10;14.13;;;0.40;99.90;;;;;;5133758;28;20223;-83
2022/11/20 08:29:09;;;;;;;22.77;13.00;;;1.30;99.90;;;;;;5130483;28;20228;-83
2022/11/20 08:31:36;;;;;;;21.23;12.68;;;0.50;99.90;;;;;;5127100;28;20232;-84
2022/11/20 08:34:03;;;;;;;21.35;12.50;;;0.60;99.90;;;;;;5126775;28;20228;-84
2022/11/20 08:36:33;;;;;;;24.05;13.57;;;0.80;99.90;;;;;;5127851;28;20288;-84
2022/11/20 08:39:00;;;;;;;21.08;13.15;;;0.80;99.90;;;;;;5132231;28;20205;-84
2022/11/20 08:41:32;;;;;;;22.48;13.70;;;0.20;99.90;;;;;;5128664;28;20273;-84
2022/11/20 08:44:01;;;;;;;22.42;13.43;;;0.30;99.90;;;;;;5126569;28;20189;-85
2022/11/20 08:46:33;;;;;;;22.75;14.13;;;0.50;99.90;;;;;;5125922;28;20223;-85
2022/11/20 08:49:00;;;;;;;27.20;14.48;;;0.50;99.90;;;;;;5127065;28;20234;-85
2022/11/20 08:51:27;;;;;;;25.08;14.05;;;0.30;99.90;;;;;;5125757;28;20201;-84
2022/11/20 08:53:54;;;;;;;18.55;11.98;;;0.60;99.90;;;;;;5136092;28;20199;-82
2022/11/20 08:56:20;;;;;;;23.23;13.80;;;0.40;99.90;;;;;;5138320;28;20268;-81
2022/11/20 08:58:50;;;;;;;20.50;13.00;;;0.50;99.90;;;;;;5137914;28;20272;-85
2022/11/20 09:01:17;;;;;;;18.98;12.90;;;0.60;99.90;;;;;;5127812;28;20264;-85
2022/11/20 09:03:44;;;;;;;25.63;13.82;;;1.00;99.90;;;;;;5126199;28;20288;-85
2022/11/20 09:06:10;;;;;;;19.88;13.80;;;0.70;99.90;;;;;;5128037;28;20265;-83
2022/11/20 09:08:37;;;;;;;20.88;14.10;;;0.70;99.90;;;;;;5124940;28;20589;-84
2022/11/20 09:11:05;;;;;;;25.83;14.70;;;0.70;99.90;;;;;;5125546;28;20575;-84
2022/11/20 09:13:33;;;;;;;21.35;14.48;;;0.70;99.90;;;;;;5128928;28;20203;-84
2022/11/20 09:16:02;;;;;;;21.65;14.63;;;0.80;99.90;;;;;;5131385;28;20232;-85
2022/11/20 09:18:31;;;;;;;20.63;14.13;;;0.90;99.90;;;;;;5126578;28;20284;-85
2022/11/20 09:20:58;;;;;;;19.75;14.05;;;0.80;99.90;;;;;;5125647;28;20211;-85
2022/11/20 09:23:25;;;;;;;20.15;14.27;;;0.70;99.90;;;;;;5125587;28;20208;-85
2022/11/20 09:25:55;;;;;;;21.73;13.45;;;0.50;99.90;;;;;;5125916;28;20197;-85
2022/11/20 09:28:23;;;;;;;20.52;13.43;;;;;;;;;;5126313;28;20232;-85
2022/11/20 09:30:50;;;;;;;20.45;14.27;;;0.70;99.90;;;;;;5125883;28;20205;-84
2022/11/20 09:33:18;;;;;;;22.40;13.35;;;0.80;99.90;;;;;;5126599;28;20287;-85
2022/11/20 09:35:45;;;;;;;19.20;13.43;;;0.80;99.90;;;;;;5125986;28;20311;-84
2022/11/20 09:38:13;;;;;;;25.20;13.90;;;0.30;99.90;;;;;;5127904;28;20245;-84
2022/11/20 09:40:46;;;;;;;19.85;13.00;;;0.60;99.90;;;;;;5127674;28;20243;-85
2022/11/20 09:43:20;;;;;;;26.25;14.70;;;0.90;99.90;;;;;;5126063;28;20190;-85
2022/11/20 09:45:59;;;;;;;16.58;12.32;;;0.40;99.90;;;;;;5126382;28;20212;-84
2022/11/20 09:48:39;;;;;;;21.30;13.60;;;1.10;99.90;;;;;;5125397;28;20260;-86
2022/11/20 09:51:17;;;;;;;23.52;14.68;;;0.70;99.90;;;;;;5126067;28;20220;-84
2022/11/20 09:53:55;;;;;;;18.17;12.50;;;0.70;99.90;;;;;;5125734;28;20231;-84
2022/11/20 09:56:23;;;;;;;20.13;12.88;;;0.40;99.90;;;;;;5125244;28;20233;-85
2022/11/20 09:58:53;;;;;;;18.77;12.80;;;0.60;99.90;;;;;;5125129;28;20212;-85
2022/11/20 10:01:22;;;;;;;18.25;12.98;;;0.90;99.90;;;;;;5125527;28;20232;-85
2022/11/20 10:03:59;;;;;;;27.05;13.05;;;0.80;99.90;;;;;;5125387;28;20252;-87
2022/11/20 10:06:31;;;;;;;16.50;11.38;;;0.80;99.90;;;;;;5125495;28;20307;-85
2022/11/20 10:09:07;;;;;;;17.80;13.63;;;1.10;99.90;;;;;;5124992;28;20190;-85
2022/11/20 10:11:43;;;;;;;15.57;11.25;;;1.20;99.90;;;;;;5124804;28;20181;-83
2022/11/20 10:14:22;;;;;;;16.02;11.43;;;1.30;99.90;;;;;;5124906;28;20249;-86
2022/11/20 10:17:00;;;;;;;19.30;13.48;;;1.10;99.90;;;;;;5128901;28;20255;-84
2022/11/20 10:19:46;;;;;;;21.85;14.18;;;1.70;99.90;;;;;;5135371;28;20439;-82
2022/11/20 10:22:23;;;;;;;23.40;14.60;;;2.30;99.90;;;;;;5134285;28;20426;-85
2022/11/20 10:24:56;;;;;;;25.10;12.63;;;1.70;99.90;;;;;;5126738;28;20465;-85
2022/11/20 10:27:55;;;;;;;18.75;13.13;;;1.80;99.90;;;;;;5127699;28;20224;-85
2022/11/20 10:30:25;;;;;;;19.23;13.20;;;1.00;99.90;;;;;;5107323;28;20542;-85
2022/11/20 10:32:55;;;;;;;21.40;15.48;;;1.00;99.90;;;;;;5126915;28;20495;-84
2022/11/20 10:35:27;;;;;;;20.38;14.27;;;0.70;99.90;;;;;;5126527;28;20284;-85
2022/11/20 10:37:59;;;;;;;21.08;14.57;;;0.70;99.90;;;;;;5128041;28;20572;-85
2022/11/20 10:40:32;;;;;;;21.60;14.80;;;0.80;99.90;;;;;;5126835;28;20445;-86
2022/11/20 10:43:03;;;;;;;19.80;14.80;;;0.70;99.90;;;;;;5127965;28;20970;-85
2022/11/20 10:45:52;;;;;;;22.10;14.50;;;0.90;99.90;;;;;;5125411;28;20568;-84
2022/11/20 10:48:22;;;;;;;25.02;15.68;;;1.10;99.90;;;;;;5126610;28;20304;-83
2022/11/20 10:51:16;;;;;;;20.85;13.50;;;1.20;99.90;;;;;;5128166;28;20628;-83
2022/11/20 10:54:02;;;;;;;17.77;13.95;;;0.90;99.90;;;;;;5126113;28;20283;-85
2022/11/20 10:56:34;;;;;;;21.00;13.85;;;0.90;99.90;;;;;;5128626;28;20264;-84
2022/11/20 10:59:14;;;;;;;22.67;14.75;;;1.10;99.90;;;;;;5128016;28;20201;-84
2022/11/20 11:01:42;;;;;;;21.83;14.05;;;1.40;99.90;;;;;;5128969;28;20212;-85
2022/11/20 11:04:24;;;;;;;20.20;14.00;;;0.80;99.90;;;;;;5129942;28;20205;-85
2022/11/20 11:06:55;;;;;;;27.08;15.65;;;1.20;99.90;;;;;;5134375;28;20255;-85
2022/11/20 11:09:33;;;;;;;25.13;15.30;;;1.20;99.90;;;;;;5135344;28;20182;-85
2022/11/20 11:12:00;;;;;;;23.73;15.32;;;1.40;99.90;;;;;;5131658;28;20227;-85
2022/11/20 11:14:27;;;;;;;24.85;14.57;;;0.90;99.90;;;;;;5129131;28;20670;-84
2022/11/20 11:16:55;;;;;;;22.65;13.88;;;1.10;99.90;;;;;;5128101;28;20267;-85
2022/11/20 11:19:22;;;;;;;26.65;13.40;;;1.40;99.90;;;;;;5129095;28;20197;-83
2022/11/20 11:21:54;;;;;;;24.38;13.00;;;1.40;99.90;;;;;;5127297;28;20240;-84
2022/11/20 11:24:23;;;;;;;21.67;13.35;;;1.20;99.90;;;;;;5127694;28;20213;-85
2022/11/20 11:26:57;;;;;;;20.73;13.60;;;1.50;99.90;;;;;;5126531;28;20588;-85
2022/11/20 11:29:26;;;;;;;18.42;12.60;;;1.30;99.90;;;;;;5134139;28;20226;-83
2022/11/20 11:32:05;;;;;;;24.27;14.88;;;1.90;99.90;;;;;;5138918;28;20228;-84
2022/11/20 11:34:32;;;;;;;17.92;12.85;;;1.90;99.90;;;;;;5139535;28;20221;-83
2022/11/20 11:37:03;;;;;;;19.65;13.00;;;1.60;99.90;;;;;;5139309;28;20225;-83
2022/11/20 11:39:31;;;;;;;19.70;14.57;;;1.50;99.90;;;;;;5132436;28;20189;-85
2022/11/20 11:41:59;;;;;;;20.65;14.43;;;1.60;99.90;;;;;;5130998;28;20300;-83
2022/11/20 11:47:23;;;;;;;18.75;13.80;;;1.50;99.90;;;;;;5128103;28;20216;-84
2022/11/20 11:49:49;;;;;;;19.30;13.05;;;1.90;99.90;;;;;;5127578;28;20509;-85
2022/11/20 11:52:22;;;;;;;19.45;13.55;;;1.50;99.90;;;;;;5125685;28;20439;-86
2022/11/20 11:54:54;;;;;;;20.42;12.68;;;2.00;99.90;;;;;;5125911;28;20284;-85
2022/11/20 11:57:29;;;;;;;27.35;18.83;;;1.70;99.90;;;;;;5126978;28;20253;-84
2022/11/20 12:00:03;;;;;;;23.08;14.48;;;1.40;99.90;;;;;;5125907;28;20268;-85
2022/11/20 12:02:38;;;;;;;18.05;12.48;;;1.20;99.90;;;;;;5126411;28;20228;-85
2022/11/20 12:05:15;;;;;;;17.23;12.13;;;1.50;99.90;;;;;;5132086;28;20223;-82
2022/11/20 12:11:02;;;;;;;32.35;20.10;;;1.50;99.90;;;;;;4411622;25;20210;-85
2022/11/20 12:27:28;;;;;;;19.88;12.82;;;1.90;99.90;;;;;;4976358;28;20430;-86
2022/11/20 12:33:40;;;;;;;19.17;12.85;;;1.80;99.90;;;;;;4973613;28;20342;-86
2022/11/20 12:40:32;;;;;;;17.88;11.25;;;1.90;99.90;;;;;;5097908;28;20283;-86
2022/11/20 12:51:03;;;;;;;20.65;13.05;;;2.10;99.90;;;;;;5053353;28;20242;-85
2022/11/20 12:57:14;;;;;;;15.93;10.13;;;2.10;91.60;;;;;;5100402;28;20225;-86
2022/11/20 13:04:01;;;;;;;13.30;7.80;;;1.90;99.90;;;;;;5099792;28;20489;-87
2022/11/20 13:06:29;;;;;;;11.40;7.35;;;;;;;;;;5113521;28;20209;-87
2022/11/20 13:09:23;;;;;;;10.65;7.70;;;;;;;;;;5116114;28;20225;-86
2022/11/20 13:12:42;;;;;;;9.25;7.63;;;1.80;99.90;;;;;;5104583;28;20275;-86
2022/11/20 13:15:27;;;;;;;11.93;7.93;;;1.80;99.90;;;;;;5102679;28;20209;-86
2022/11/20 13:18:02;;;;;;;9.23;7.68;;;1.70;99.90;;;;;;5100944;28;20632;-86
2022/11/20 13:20:34;;;;;;;11.90;8.40;;;;;;;;;;5099633;28;20613;-86
2022/11/20 13:23:01;;;;;;;23.20;9.25;;;;;;;;;;5100006;28;20194;-86
2022/11/20 13:25:30;;;;;;;10.55;8.38;;;1.70;99.90;;;;;;5099403;28;20212;-86
2022/11/20 13:28:02;;;;;;;13.75;9.65;;;;;;;;;;5099485;28;20588;-86
2022/11/20 13:30:33;;;;;;;11.27;8.02;;;;;;;;;;5099993;28;20190;-86
2022/11/20 13:33:07;;;;;;;10.15;8.23;;;1.80;99.90;;;;;;5099211;28;20241;-87
2022/11/20 13:35:44;;;;;;;13.48;8.38;;;;;;;;;;5101641;28;20192;-88
2022/11/20 13:38:14;;;;;;;13.73;8.35;;;;;;;;;;5099331;28;20213;-86
2022/11/20 13:41:27;;;;;;;19.50;8.07;;;1.60;99.90;;;;;;5099300;28;20189;-86
2022/11/20 13:44:01;;;;;;;14.15;8.23;;;;;;;;;;5097771;28;20206;-86
2022/11/20 13:46:43;;;;;;;9.95;7.25;;;1.70;99.90;;;;;;5099891;28;20201;-86